Time;durP1;ratioP1;P1;durP2;ratioP2;P2;SDS_P1;SDS_P2;PMS_P1;PMS_P2;Temp;Humidity;BMP_temperature;BMP_pressure;BME280_temperature;BME280_humidity;BME280_pressure;Samples;Min_cycle;Max_cycle;Signal;HPM_P1;HPM_P2
2021/03/19 00:01:47;;;;;;;15.30;9.90;;;;;;;3.57;58.01;94252.03;5012004;28;20183;-72
2021/03/19 00:04:12;;;;;;;15.73;9.33;;;;;;;3.64;57.91;94249.66;5012244;28;20259;-72
2021/03/19 00:06:38;;;;;;;16.17;9.10;;;;;;;3.53;58.09;94243.97;5012184;28;20169;-72
2021/03/19 00:09:06;;;;;;;16.03;9.53;;;;;;;3.51;57.98;94242.75;5012146;28;20176;-72
2021/03/19 00:11:32;;;;;;;15.35;9.27;;;;;;;3.42;57.87;94242.75;5011486;28;20240;-72
2021/03/19 00:13:57;;;;;;;16.55;9.52;;;;;;;3.44;59.07;94240.59;5010841;28;20188;-72
2021/03/19 00:16:23;;;;;;;13.83;8.23;;;;;;;3.49;58.28;94239.66;5010254;28;20185;-72
2021/03/19 00:18:49;;;;;;;14.87;8.67;;;;;;;3.48;58.29;94246.00;5011982;28;20268;-72
2021/03/19 00:21:15;;;;;;;17.63;9.43;;;;;;;3.29;58.99;94212.06;5012053;28;20181;-72
2021/03/19 00:23:40;;;;;;;15.15;8.73;;;;;;;3.47;58.38;94244.44;5011651;28;20551;-72
2021/03/19 00:26:06;;;;;;;17.20;9.63;;;;;;;3.46;58.23;94235.75;5011767;28;20184;-71
2021/03/19 00:28:31;;;;;;;17.30;10.77;;;;;;;3.30;58.46;94246.03;5011637;28;20158;-72
2021/03/19 00:30:57;;;;;;;19.00;10.37;;;;;;;3.17;59.08;94242.50;5011934;28;20288;-72
2021/03/19 00:33:22;;;;;;;15.80;9.93;;;;;;;3.27;59.24;94245.91;5011647;28;20173;-72
2021/03/19 00:35:49;;;;;;;16.43;9.57;;;;;;;3.26;58.79;94247.78;5011806;28;20180;-72
2021/03/19 00:38:15;;;;;;;20.90;10.40;;;;;;;3.27;60.11;94245.91;5011609;28;20255;-71
2021/03/19 00:40:41;;;;;;;17.47;9.87;;;;;;;3.10;59.29;94241.44;5011751;28;20276;-71
2021/03/19 00:43:06;;;;;;;19.30;11.33;;;;;;;3.28;59.33;94244.81;5010234;28;20180;-72
2021/03/19 00:45:32;;;;;;;17.37;9.83;;;;;;;3.27;59.33;94241.41;5010560;28;20257;-72
2021/03/19 00:47:57;;;;;;;16.63;9.57;;;;;;;3.33;60.20;94234.09;5011619;28;20200;-72
2021/03/19 00:50:36;;;;;;;19.83;9.43;;;;;;;3.12;59.60;94228.69;5011436;28;20580;-72
2021/03/19 00:53:02;;;;;;;18.02;9.18;;;;;;;3.16;59.63;94232.28;5011464;28;20706;-72
2021/03/19 00:55:28;;;;;;;19.50;10.23;;;;;;;3.04;60.97;94240.06;5009721;28;20199;-72
2021/03/19 00:57:53;;;;;;;16.77;9.90;;;;;;;3.22;59.81;94238.16;5012656;28;20176;-73
2021/03/19 01:00:19;;;;;;;14.57;8.90;;;;;;;3.10;60.03;94231.66;5015282;28;20656;-72
2021/03/19 01:02:45;;;;;;;15.15;9.20;;;;;;;3.20;59.71;94238.47;5015425;28;20211;-72
2021/03/19 01:05:22;;;;;;;15.00;9.30;;;;;;;3.16;60.26;94229.63;5015242;28;20216;-72
2021/03/19 01:07:47;;;;;;;15.48;9.82;;;;;;;3.19;60.26;94236.91;5015473;28;20176;-72
2021/03/19 01:10:25;;;;;;;14.33;9.43;;;;;;;3.09;60.90;94229.34;5015011;28;20268;-72
2021/03/19 01:12:51;;;;;;;16.08;9.38;;;;;;;2.98;61.40;94230.75;5015273;28;20213;-72
2021/03/19 01:15:16;;;;;;;15.80;9.40;;;;;;;2.92;61.29;94230.91;5015093;28;20655;-72
2021/03/19 01:17:42;;;;;;;16.03;9.20;;;;;;;3.08;61.15;94225.13;5015256;28;20173;-71
2021/03/19 01:20:09;;;;;;;16.50;9.83;;;;;;;3.07;62.13;94227.00;5015054;28;20541;-72
2021/03/19 01:22:35;;;;;;;14.50;9.15;;;;;;;3.04;60.62;94222.38;5013964;28;20173;-72
2021/03/19 01:25:00;;;;;;;16.83;9.30;;;;;;;3.21;60.84;94213.66;5014736;28;20177;-72
2021/03/19 01:27:26;;;;;;;15.77;9.73;;;;;;;3.09;61.04;94214.28;5015309;28;20177;-72
2021/03/19 01:29:51;;;;;;;13.97;8.70;;;;;;;3.13;61.18;94214.41;5015139;28;20260;-72
2021/03/19 01:32:17;;;;;;;15.23;9.07;;;;;;;3.20;60.97;94222.66;5014739;28;20308;-72
2021/03/19 01:34:42;;;;;;;15.93;9.40;;;;;;;3.14;60.68;94223.88;5014997;28;20181;-72
2021/03/19 01:37:08;;;;;;;15.73;9.87;;;;;;;3.16;60.34;94222.50;5014640;28;20177;-72
2021/03/19 01:39:33;;;;;;;15.83;9.67;;;;;;;3.11;61.14;94214.75;5014905;28;20169;-72
2021/03/19 01:41:59;;;;;;;17.73;9.77;;;;;;;3.18;61.03;94224.81;5014552;28;20173;-72
2021/03/19 01:44:40;;;;;;;20.02;8.65;;;;;;;3.16;60.14;94227.00;4997775;28;20598;-72
2021/03/19 01:47:43;;;;;;;14.13;8.75;;;;;;;3.19;59.94;94227.13;5013400;28;20644;-72
2021/03/19 01:50:45;;;;;;;13.52;8.27;;;;;;;3.25;59.76;94219.03;5014359;28;20172;-72
2021/03/19 01:53:48;;;;;;;14.82;7.88;;;;;;;3.33;60.26;94218.25;5014463;28;20216;-72
2021/03/19 01:56:51;;;;;;;14.63;8.07;;;;;;;3.27;60.96;94212.38;5014496;28;20177;-72
2021/03/19 01:59:53;;;;;;;13.95;8.65;;;;;;;3.18;60.90;94215.03;5014530;28;20181;-72
2021/03/19 02:02:56;;;;;;;12.35;7.85;;;;;;;2.98;61.04;94217.56;5014165;28;20173;-72
2021/03/19 02:05:59;;;;;;;16.58;9.27;;;;;;;3.24;60.58;94209.59;5029376;28;20195;-72
2021/03/19 02:09:02;;;;;;;17.13;8.82;;;;;;;3.05;60.08;94208.09;5014026;28;20539;-72
2021/03/19 02:12:04;;;;;;;16.17;9.18;;;;;;;3.02;61.10;94207.94;5014106;28;20211;-72
2021/03/19 02:15:07;;;;;;;16.33;9.43;;;;;;;3.12;61.18;94205.72;5014190;28;20652;-72
2021/03/19 02:18:10;;;;;;;13.13;8.10;;;;;;;3.18;60.84;94198.44;5013859;28;20177;-72
2021/03/19 02:21:12;;;;;;;16.48;8.85;;;;;;;3.18;61.52;94203.69;5013837;28;20255;-72
2021/03/19 02:24:15;;;;;;;14.45;8.00;;;;;;;3.19;60.44;94202.59;5013799;28;20555;-72
2021/03/19 02:27:17;;;;;;;12.60;7.90;;;;;;;3.11;60.72;94204.19;5013984;28;20234;-72
2021/03/19 02:30:20;;;;;;;14.45;8.85;;;;;;;3.13;60.46;94206.50;5014003;28;20191;-72
2021/03/19 02:32:46;;;;;;;11.55;7.30;;;;;;;3.18;59.30;94201.84;5013819;28;20211;-72
2021/03/19 02:35:19;;;;;;;11.63;7.30;;;;;;;3.43;58.35;94205.50;5013836;28;20590;-72
2021/03/19 02:37:45;;;;;;;10.80;7.25;;;;;;;3.42;58.52;94211.88;4997214;28;20177;-72
2021/03/19 02:40:18;;;;;;;10.27;6.67;;;;;;;3.07;58.50;94211.16;5012518;28;20181;-71
2021/03/19 02:42:44;;;;;;;13.18;8.02;;;;;;;2.89;59.19;94204.38;5011987;28;20660;-72
2021/03/19 02:45:12;;;;;;;11.77;7.50;;;;;;;3.08;58.48;94199.53;5012692;28;20188;-72
2021/03/19 02:47:38;;;;;;;11.40;6.78;;;;;;;2.76;58.77;94145.47;5013381;28;20184;-72
2021/03/19 02:50:04;;;;;;;12.77;6.90;;;;;;;3.07;58.31;94199.84;5013479;28;20268;-72
2021/03/19 02:52:33;;;;;;;10.68;7.03;;;;;;;3.10;58.57;94194.72;5013092;28;20267;-72
2021/03/19 02:54:58;;;;;;;11.15;6.75;;;;;;;3.15;58.69;94194.56;5013320;28;20264;-72
2021/03/19 02:57:24;;;;;;;11.73;8.23;;;;;;;3.37;57.83;94196.22;5013113;28;20536;-72
2021/03/19 02:59:49;;;;;;;10.03;6.60;;;;;;;3.25;58.26;94198.72;5013377;28;20189;-72
2021/03/19 03:02:15;;;;;;;9.80;6.30;;;;;;;3.30;58.05;94195.91;5013046;28;20185;-71
2021/03/19 03:04:40;;;;;;;13.17;7.53;;;;;;;3.21;58.62;94189.13;5013300;28;20200;-72
2021/03/19 03:07:06;;;;;;;9.23;6.13;;;;;;;3.26;57.70;94195.00;5013014;28;20235;-72
2021/03/19 03:09:33;;;;;;;11.30;7.13;;;;;;;3.21;57.83;94197.81;5013094;28;20532;-71
2021/03/19 03:11:59;;;;;;;9.73;6.68;;;;;;;3.21;57.56;94194.41;5011736;28;20212;-72
2021/03/19 03:14:27;;;;;;;11.77;7.30;;;;;;;3.35;56.63;94189.69;5027963;28;20185;-72
2021/03/19 03:16:53;;;;;;;12.48;7.45;;;;;;;3.40;58.23;94197.44;5013000;28;20260;-71
2021/03/19 03:19:22;;;;;;;11.07;6.40;;;;;;;3.33;57.27;94194.53;5010929;28;20193;-71
2021/03/19 03:21:47;;;;;;;11.95;7.22;;;;;;;3.22;57.17;94188.03;5012842;28;20175;-72
2021/03/19 03:24:13;;;;;;;10.17;6.93;;;;;;;3.38;57.25;94194.34;5012749;28;20177;-70
2021/03/19 03:26:40;;;;;;;11.37;7.30;;;;;;;3.36;56.67;94191.22;5012772;28;20184;-71
2021/03/19 03:29:06;;;;;;;11.15;6.70;;;;;;;3.22;57.43;94195.94;5012782;28;20204;-71
2021/03/19 03:31:31;;;;;;;10.83;7.17;;;;;;;3.21;57.12;94189.13;5011175;28;20228;-71
2021/03/19 03:33:57;;;;;;;11.83;7.63;;;;;;;3.14;57.82;94197.50;5012466;28;20255;-71
2021/03/19 03:36:22;;;;;;;9.87;7.17;;;;;;;3.31;57.71;94196.69;5012720;28;20173;-71
2021/03/19 03:38:48;;;;;;;12.80;7.60;;;;;;;3.12;57.51;94194.41;5012593;28;20172;-71
2021/03/19 03:41:19;;;;;;;14.03;7.63;;;;;;;3.16;58.71;94195.34;5012328;28;20260;-71
2021/03/19 03:43:44;;;;;;;11.20;7.00;;;;;;;3.27;57.77;94187.88;5012331;28;20173;-71
2021/03/19 03:46:13;;;;;;;11.53;6.90;;;;;;;2.91;58.22;94189.78;5012373;28;20180;-71
2021/03/19 03:48:38;;;;;;;12.73;7.90;;;;;;;2.97;58.30;94193.03;5012480;28;20232;-71
2021/03/19 03:51:06;;;;;;;11.20;7.50;;;;;;;2.94;58.37;94185.00;5012100;28;20216;-72
2021/03/19 03:53:31;;;;;;;13.90;8.00;;;;;;;2.69;58.18;94184.69;5010330;28;20769;-71
2021/03/19 03:55:57;;;;;;;15.50;8.27;;;;;;;2.94;58.85;94191.03;5012064;28;20181;-72
2021/03/19 03:58:22;;;;;;;10.63;7.17;;;;;;;3.11;58.23;94190.22;5012145;28;20169;-72
2021/03/19 04:00:48;;;;;;;13.70;8.20;;;;;;;3.18;58.84;94196.56;5011990;28;20559;-71
2021/03/19 04:03:14;;;;;;;12.60;8.10;;;;;;;3.12;58.74;94203.09;5012245;28;20201;-72
2021/03/19 04:05:44;;;;;;;11.80;7.57;;;;;;;3.06;59.15;94199.06;5010836;28;20174;-72
2021/03/19 04:08:10;;;;;;;12.50;7.47;;;;;;;3.03;58.97;94201.56;5012157;28;20181;-72
2021/03/19 04:10:36;;;;;;;13.70;7.20;;;;;;;2.99;58.90;94196.16;5012180;28;20180;-71
2021/03/19 04:13:02;;;;;;;13.30;8.60;;;;;;;3.01;58.03;94195.84;5011908;28;20209;-72
2021/03/19 04:15:28;;;;;;;12.13;7.55;;;;;;;3.20;57.70;94212.09;5012110;28;20674;-72
2021/03/19 04:17:58;;;;;;;16.07;8.63;;;;;;;2.89;58.48;94204.38;5011425;28;20212;-71
2021/03/19 04:20:24;;;;;;;11.93;7.60;;;;;;;2.83;59.26;94203.00;4994943;28;20169;-72
2021/03/19 04:22:49;;;;;;;14.67;8.30;;;;;;;2.89;58.96;94210.44;5010421;28;20196;-72
2021/03/19 04:25:15;;;;;;;12.57;7.37;;;;;;;2.97;57.87;94210.72;5012029;28;20176;-72
2021/03/19 04:27:48;;;;;;;13.82;8.23;;;;;;;3.08;58.72;94211.94;5011530;28;20181;-73
2021/03/19 04:30:22;;;;;;;13.65;8.50;;;;;;;3.09;58.96;94208.25;5010355;28;20743;-73
2021/03/19 04:32:48;;;;;;;10.88;7.07;;;;;;;3.08;58.21;94211.94;5010191;28;20208;-72
2021/03/19 04:35:14;;;;;;;13.70;7.30;;;;;;;2.99;58.80;94221.75;5010621;28;20185;-71
2021/03/19 04:37:39;;;;;;;15.13;8.43;;;;;;;2.76;59.53;94218.53;5009911;28;20181;-71
2021/03/19 04:40:06;;;;;;;11.57;7.63;;;;;;;2.92;59.64;94214.31;4994118;28;20267;-72
2021/03/19 04:42:31;;;;;;;14.70;8.68;;;;;;;2.87;59.38;94220.53;4993567;28;20181;-72
2021/03/19 04:44:57;;;;;;;12.57;8.53;;;;;;;2.96;59.63;94219.72;5010547;28;20651;-72
2021/03/19 04:47:22;;;;;;;12.30;7.80;;;;;;;2.97;59.44;94223.91;5010408;28;20184;-71
2021/03/19 04:49:48;;;;;;;13.13;7.97;;;;;;;3.10;58.54;94220.34;5011417;28;20173;-72
2021/03/19 04:52:13;;;;;;;15.23;7.90;;;;;;;2.96;59.04;94219.72;5011538;28;20201;-71
2021/03/19 04:54:40;;;;;;;13.30;8.00;;;;;;;3.06;58.94;94228.09;5011179;28;20225;-71
2021/03/19 04:57:05;;;;;;;12.55;7.63;;;;;;;3.14;58.95;94216.75;5010750;28;20603;-70
2021/03/19 04:59:31;;;;;;;10.17;7.10;;;;;;;3.18;58.16;94217.66;5011518;28;20243;-72
2021/03/19 05:01:58;;;;;;;15.27;8.37;;;;;;;3.21;58.44;94221.56;5011458;28;20200;-72
2021/03/19 05:04:24;;;;;;;14.40;8.20;;;;;;;3.25;57.95;94224.31;5011315;28;20169;-72
2021/03/19 05:06:52;;;;;;;13.57;8.40;;;;;;;3.28;57.94;94221.06;5011491;28;20269;-72
2021/03/19 05:09:17;;;;;;;11.98;7.93;;;;;;;3.33;57.92;94218.25;5011288;28;20204;-72
2021/03/19 05:11:43;;;;;;;12.70;7.83;;;;;;;3.12;58.12;94223.44;5010187;28;20322;-72
2021/03/19 05:14:08;;;;;;;12.60;7.80;;;;;;;3.11;57.88;94217.38;5011265;28;20556;-72
2021/03/19 05:16:34;;;;;;;14.63;8.03;;;;;;;3.20;58.03;94230.56;5011120;28;20699;-72
2021/03/19 05:18:59;;;;;;;12.17;7.03;;;;;;;3.32;57.21;94230.69;5011361;28;20165;-72
2021/03/19 05:21:25;;;;;;;12.83;8.47;;;;;;;3.29;56.27;94236.59;5011173;28;20188;-72
2021/03/19 05:23:50;;;;;;;15.60;8.97;;;;;;;3.15;57.65;94228.88;5009234;28;20652;-72
2021/03/19 05:26:16;;;;;;;12.63;7.90;;;;;;;3.28;56.42;94229.75;5011119;28;20177;-72
2021/03/19 05:28:41;;;;;;;11.67;7.87;;;;;;;3.28;56.97;94237.69;5011076;28;20255;-72
2021/03/19 05:31:07;;;;;;;13.37;7.67;;;;;;;3.24;57.59;94235.97;5010964;28;20343;-72
2021/03/19 05:33:47;;;;;;;13.97;8.30;;;;;;;3.41;56.66;94247.25;5011109;28;20232;-73
2021/03/19 05:36:13;;;;;;;16.02;8.32;;;;;;;3.37;55.98;94235.81;5009840;28;20181;-73
2021/03/19 05:38:38;;;;;;;14.30;7.32;;;;;;;3.28;56.63;94239.53;5011195;28;20200;-72
2021/03/19 05:41:04;;;;;;;13.50;8.70;;;;;;;3.32;56.36;94249.16;5010865;28;20181;-72
2021/03/19 05:43:40;;;;;;;11.03;7.30;;;;;;;3.32;55.82;94243.88;5012645;28;20228;-72
2021/03/19 05:46:11;;;;;;;13.13;8.50;;;;;;;3.40;55.54;94248.34;5013330;28;20643;-72
2021/03/19 05:48:57;;;;;;;12.15;7.93;;;;;;;3.52;55.47;94249.56;4997412;28;20219;-73
2021/03/19 05:51:22;;;;;;;11.85;7.57;;;;;;;3.37;55.37;94254.28;5013281;28;20667;-73
2021/03/19 05:54:00;;;;;;;15.80;7.97;;;;;;;3.29;56.03;94249.00;5014236;28;20312;-72
2021/03/19 05:56:28;;;;;;;13.13;8.15;;;;;;;3.29;55.25;94252.41;5013090;28;20185;-71
2021/03/19 05:58:54;;;;;;;14.80;7.53;;;;;;;3.31;55.66;94247.63;5014270;28;20264;-73
2021/03/19 06:01:19;;;;;;;14.50;7.63;;;;;;;3.28;54.31;94253.50;5012767;28;20341;-71
2021/03/19 06:03:46;;;;;;;12.90;7.57;;;;;;;3.28;55.32;94245.59;5014354;28;20193;-71
2021/03/19 06:06:12;;;;;;;17.83;8.48;;;;;;;3.42;54.78;94253.31;5012940;28;20188;-72
2021/03/19 06:08:41;;;;;;;13.37;7.87;;;;;;;3.48;54.49;94257.34;5012687;28;20185;-72
2021/03/19 06:11:15;;;;;;;12.98;8.05;;;;;;;3.49;54.16;94264.19;5014010;28;20697;-73
2021/03/19 06:13:59;;;;;;;13.80;8.48;;;;;;;3.63;53.81;94256.81;5012770;28;20199;-72
2021/03/19 06:16:29;;;;;;;12.80;8.40;;;;;;;3.70;54.68;94264.25;4993816;28;20648;-70
2021/03/19 06:18:55;;;;;;;12.82;7.60;;;;;;;3.69;54.56;94260.06;4996560;28;20180;-71
2021/03/19 06:21:36;;;;;;;11.98;8.48;;;;;;;3.82;53.89;94267.03;5011750;28;20671;-71
2021/03/19 06:24:24;;;;;;;11.35;7.63;;;;;;;3.83;54.44;94270.44;5014068;28;20207;-72
2021/03/19 06:26:50;;;;;;;12.70;7.75;;;;;;;3.96;52.79;94267.56;5012515;28;20220;-73
2021/03/19 06:29:21;;;;;;;10.80;7.07;;;;;;;3.96;52.13;94272.09;5012833;28;20554;-72
2021/03/19 06:32:13;;;;;;;11.57;7.60;;;;;;;4.19;50.98;94275.22;5013399;28;20205;-72
2021/03/19 06:34:56;;;;;;;9.70;6.63;;;;;;;3.77;50.82;94261.91;5012386;28;20173;-72
2021/03/19 06:37:32;;;;;;;10.60;6.90;;;;;;;3.82;51.12;94282.88;5012546;28;20256;-71
2021/03/19 06:39:57;;;;;;;10.95;7.15;;;;;;;3.78;51.34;94281.16;5013408;28;20202;-71
2021/03/19 06:42:25;;;;;;;13.53;8.07;;;;;;;3.77;51.56;94284.91;5012986;28;20181;-71
2021/03/19 06:45:15;;;;;;;11.48;7.72;;;;;;;3.77;53.35;94274.34;5012467;28;20192;-71
2021/03/19 06:47:45;;;;;;;12.88;7.55;;;;;;;4.09;52.93;94281.66;5012652;28;20239;-71
2021/03/19 06:50:37;;;;;;;10.43;6.45;;;;;;;4.22;52.20;94288.59;5012963;28;20204;-72
2021/03/19 06:53:20;;;;;;;10.00;6.55;;;;;;;4.29;51.49;94285.44;5011296;28;20225;-71
2021/03/19 06:55:53;;;;;;;11.35;7.65;;;;;;;4.25;51.32;94280.00;5011230;28;20177;-73
2021/03/19 06:58:39;;;;;;;9.60;6.70;;;;;;;4.30;50.75;94278.28;4994991;28;20181;-72
2021/03/19 07:01:25;;;;;;;9.02;5.82;;;;;;;4.27;50.02;94282.34;5009262;28;20195;-72
2021/03/19 07:04:09;;;;;;;8.20;6.22;;;;;;;4.00;51.21;94290.72;5004955;28;20193;-73
2021/03/19 07:07:03;;;;;;;9.70;6.65;;;;;;;4.10;51.78;94285.09;5004728;28;20181;-73
2021/03/19 07:10:02;;;;;;;10.60;7.10;;;;;;;4.54;49.85;94286.38;4999757;28;20220;-74
2021/03/19 07:12:44;;;;;;;10.95;7.13;;;;;;;4.25;49.75;94290.59;5002235;28;20827;-73
2021/03/19 07:15:18;;;;;;;12.50;8.13;;;;;;;4.37;50.57;94283.84;4988746;28;20180;-74
2021/03/19 07:17:47;;;;;;;15.80;8.73;;;;;;;4.43;50.80;94283.34;5007461;28;20187;-71
2021/03/19 07:20:38;;;;;;;16.52;8.82;;;;;;;4.83;51.09;94277.66;5011267;28;20197;-71
2021/03/19 07:23:14;;;;;;;16.20;8.15;;;;;;;5.05;49.83;94287.13;4943626;28;20290;-74
2021/03/19 07:25:55;;;;;;;10.30;6.63;;;;;;;4.67;48.59;94282.72;4944450;28;20194;-73
2021/03/19 07:28:32;;;;;;;10.98;6.70;;;;;;;4.91;48.98;94287.38;4931900;28;20191;-73
2021/03/19 07:31:06;;;;;;;13.23;7.20;;;;;;;4.80;48.46;94288.84;4932950;28;20635;-74
2021/03/19 07:34:10;;;;;;;12.00;6.78;;;;;;;4.41;50.82;94264.38;4948864;28;20461;-71
2021/03/19 07:37:03;;;;;;;12.00;7.57;;;;;;;4.78;50.92;94281.25;4934586;29;20179;-73
2021/03/19 07:39:46;;;;;;;11.93;6.95;;;;;;;4.63;48.92;94286.34;4945683;28;20187;-74
2021/03/19 07:42:37;;;;;;;10.50;7.18;;;;;;;4.41;50.10;94282.88;4931132;29;20190;-71
2021/03/19 07:45:15;;;;;;;12.02;7.03;;;;;;;4.72;51.64;94293.13;4941258;28;20199;-72
2021/03/19 07:48:00;;;;;;;12.13;7.53;;;;;;;4.90;49.98;94279.75;4949849;28;20206;-71
2021/03/19 07:50:50;;;;;;;12.17;7.40;;;;;;;5.15;49.60;94284.06;4935755;29;20194;-74
2021/03/19 07:53:45;;;;;;;11.63;7.23;;;;;;;5.28;49.93;94280.38;4951411;29;20490;-73
2021/03/19 07:56:29;;;;;;;11.55;7.35;;;;;;;5.34;48.60;94282.81;4937841;29;20515;-72
2021/03/19 07:59:23;;;;;;;14.53;7.70;;;;;;;5.31;48.13;94281.59;4951883;28;20195;-73
2021/03/19 08:02:23;;;;;;;14.80;8.00;;;;;;;5.43;47.95;94278.19;5009002;28;20428;-73
2021/03/19 08:05:07;;;;;;;13.17;8.27;;;;;;;5.50;48.04;94279.25;5012185;28;20189;-73
2021/03/19 08:08:12;;;;;;;11.87;7.97;;;;;;;5.65;48.57;94277.81;5011904;28;20427;-72
2021/03/19 08:11:16;;;;;;;13.07;7.87;;;;;;;5.84;48.77;94283.38;4935462;29;20501;-72
2021/03/19 08:13:51;;;;;;;12.70;8.27;;;;;;;5.88;47.18;94278.19;4951578;29;20430;-73
2021/03/19 08:16:46;;;;;;;12.67;7.87;;;;;;;5.43;48.86;94286.91;4936147;29;20501;-72
2021/03/19 08:19:20;;;;;;;12.70;7.27;;;;;;;5.33;49.28;94282.03;4950837;29;20471;-71
2021/03/19 08:22:04;;;;;;;12.63;7.82;;;;;;;5.68;48.37;94284.34;4951447;29;21019;-73
2021/03/19 08:24:54;;;;;;;11.87;7.53;;;;;;;5.95;48.69;94286.41;4951484;29;20190;-72
2021/03/19 08:27:36;;;;;;;10.13;7.17;;;;;;;6.18;47.42;94280.69;4935376;29;20423;-73
2021/03/19 08:30:23;;;;;;;14.47;8.17;;;;;;;6.19;47.59;94284.88;4920298;29;20426;-73
2021/03/19 08:33:01;;;;;;;11.97;7.63;;;;;;;6.32;47.95;94273.16;4951380;29;20572;-72
2021/03/19 08:35:31;;;;;;;11.83;6.80;;;;;;;6.30;46.60;94270.09;4934748;29;20444;-72
2021/03/19 08:38:26;;;;;;;13.17;7.63;;;;;;;6.30;48.23;94276.16;4935450;29;20423;-73
2021/03/19 08:41:03;;;;;;;9.47;6.40;;;;;;;6.49;46.92;94267.63;4935246;29;20961;-72
2021/03/19 08:43:52;;;;;;;14.30;8.50;;;;;;;6.49;45.71;94267.63;4919529;29;20426;-73
2021/03/19 08:47:11;;;;;;;11.20;7.47;;;;;;;6.32;47.56;94262.56;4927114;28;20493;-72
2021/03/19 08:49:48;;;;;;;12.67;7.50;;;;;;;6.81;47.42;94267.78;4935364;29;20431;-72
2021/03/19 08:52:37;;;;;;;13.60;7.60;;;;;;;6.74;46.41;94271.03;4918613;29;20478;-73
2021/03/19 08:55:12;;;;;;;13.70;7.57;;;;;;;6.35;46.69;94265.31;4935245;29;20525;-73
2021/03/19 08:57:37;;;;;;;13.40;7.03;;;;;;;6.15;46.59;94274.16;4951318;29;20525;-72
2021/03/19 09:00:07;;;;;;;12.20;7.43;;;;;;;6.58;48.03;94268.28;4951149;29;21023;-73
2021/03/19 09:02:32;;;;;;;13.40;7.87;;;;;;;6.66;45.88;94265.84;4934753;29;20314;-72
2021/03/19 09:04:58;;;;;;;14.03;8.23;;;;;;;6.43;47.12;94265.53;4951074;29;20989;-72
2021/03/19 09:07:37;;;;;;;12.80;8.43;;;;;;;6.52;47.94;94269.63;4950929;29;20183;-73
2021/03/19 09:10:18;;;;;;;12.83;8.13;;;;;;;6.50;45.83;94260.44;4951038;29;20178;-72
2021/03/19 09:12:55;;;;;;;13.50;7.77;;;;;;;6.75;46.14;94261.94;4950951;29;20643;-73
2021/03/19 09:15:21;;;;;;;12.20;8.07;;;;;;;6.82;45.80;94251.53;4950650;29;20951;-73
2021/03/19 09:17:50;;;;;;;13.43;8.10;;;;;;;7.13;46.23;94250.88;4951656;28;20419;-73
2021/03/19 09:20:40;;;;;;;13.40;7.87;;;;;;;7.20;46.49;94245.00;4988347;28;20287;-74
2021/03/19 09:23:11;;;;;;;13.47;8.00;;;;;;;7.52;44.31;94255.66;5015267;28;20420;-73
2021/03/19 09:25:42;;;;;;;13.57;7.20;;;;;;;7.46;43.93;94249.84;5014872;28;20499;-73
2021/03/19 09:28:37;;;;;;;12.13;7.50;;;;;;;7.47;44.11;94255.94;5014954;28;20412;-72
2021/03/19 09:31:29;;;;;;;12.90;7.77;;;;;;;7.59;43.42;94261.19;5013864;28;20431;-74
2021/03/19 09:33:57;;;;;;;13.60;7.37;;;;;;;7.04;44.22;94249.47;5013142;28;20428;-73
2021/03/19 09:36:52;;;;;;;14.07;8.27;;;;;;;7.35;46.66;94256.75;5014901;28;20463;-72
2021/03/19 09:39:56;;;;;;;16.13;8.37;;;;;;;7.57;44.63;94255.44;5014659;28;20423;-72
2021/03/19 09:42:21;;;;;;;13.03;8.27;;;;;;;7.86;44.98;94252.41;5029773;28;20422;-72
2021/03/19 09:44:59;;;;;;;15.33;8.33;;;;;;;7.94;43.85;94250.66;5014681;28;20423;-73
2021/03/19 09:47:41;;;;;;;13.30;8.10;;;;;;;7.77;44.35;94251.00;5014496;28;20196;-73
2021/03/19 09:50:16;;;;;;;13.43;8.17;;;;;;;8.11;43.59;94252.22;5014727;28;20934;-71
2021/03/19 09:53:08;;;;;;;13.73;7.07;;;;;;;8.02;42.70;94256.91;5014312;28;20475;-72
2021/03/19 09:55:38;;;;;;;14.63;7.83;;;;;;;7.62;42.93;94245.31;5003006;28;20440;-71
2021/03/19 09:58:44;;;;;;;13.77;8.27;;;;;;;7.81;43.93;94251.88;5012945;28;20432;-71
2021/03/19 10:01:19;;;;;;;13.73;8.80;;;;;;;8.07;43.16;94236.16;5013309;28;20942;-71
2021/03/19 10:03:50;;;;;;;13.80;7.50;;;;;;;8.35;43.28;94245.91;5013072;28;20411;-73
2021/03/19 10:06:17;;;;;;;14.03;7.63;;;;;;;8.28;42.99;94243.88;5013361;28;20749;-72
2021/03/19 10:08:43;;;;;;;9.90;6.83;;;;;;;8.31;41.24;94247.75;5013140;28;20416;-73
2021/03/19 10:11:11;;;;;;;12.27;7.23;;;;;;;8.25;40.65;94249.09;5013868;28;21001;-73
2021/03/19 10:13:36;;;;;;;13.67;7.43;;;;;;;8.34;41.17;94252.34;5013207;28;20231;-73
2021/03/19 10:16:02;;;;;;;20.03;8.13;;;;;;;8.60;43.80;94241.19;5014587;28;20503;-73
2021/03/19 10:18:32;;;;;;;14.37;7.90;;;;;;;8.80;40.79;94249.97;4996652;28;20177;-72
2021/03/19 10:21:10;;;;;;;12.63;7.80;;;;;;;8.92;40.75;94249.81;5013978;28;20173;-72
2021/03/19 10:23:47;;;;;;;13.80;7.70;;;;;;;8.35;40.48;94253.91;5013991;28;20414;-72
2021/03/19 10:26:32;;;;;;;12.50;7.27;;;;;;;8.46;41.04;94246.94;5014044;28;20504;-71
2021/03/19 10:29:06;;;;;;;11.80;7.03;;;;;;;8.82;40.92;94251.16;5013533;28;20514;-72
2021/03/19 10:31:31;;;;;;;11.20;7.47;;;;;;;9.11;39.82;94262.41;5013816;28;20920;-72
2021/03/19 10:34:03;;;;;;;12.80;7.47;;;;;;;8.93;39.69;94243.41;5012489;28;20519;-71
2021/03/19 10:37:00;;;;;;;11.17;7.40;;;;;;;9.20;41.36;94246.97;4996838;28;20173;-72
2021/03/19 10:39:32;;;;;;;13.30;8.50;;;;;;;9.67;40.08;94236.06;4930161;29;20430;-70
2021/03/19 10:42:31;;;;;;;9.63;5.83;;;;;;;9.70;37.76;94245.22;4910359;29;20418;-71
2021/03/19 10:45:31;;;;;;;8.93;5.50;;;;;;;9.38;36.96;94236.66;4926576;29;20431;-71
2021/03/19 10:48:15;;;;;;;10.87;6.63;;;;;;;9.71;37.79;94246.78;4925288;29;20427;-71
2021/03/19 10:50:51;;;;;;;12.73;6.37;;;;;;;10.05;38.88;94229.06;4933800;29;20434;-71
2021/03/19 10:53:18;;;;;;;13.10;7.63;;;;;;;10.34;39.54;94227.63;4930748;29;20569;-71
2021/03/19 10:55:48;;;;;;;9.40;6.67;;;;;;;10.82;38.66;94222.56;4936612;29;20475;-71
2021/03/19 10:58:19;;;;;;;13.00;7.80;;;;;;;10.78;35.47;94225.19;4931875;29;20427;-72
2021/03/19 11:00:46;;;;;;;7.43;5.23;;;;;;;10.32;34.60;94232.53;4943175;29;20439;-71
2021/03/19 11:03:31;;;;;;;9.77;5.83;;;;;;;9.64;35.04;94228.75;4952925;29;20434;-71
2021/03/19 11:06:09;;;;;;;8.87;5.33;;;;;;;9.13;35.12;94226.28;4937515;29;20434;-71
2021/03/19 11:08:37;;;;;;;7.87;6.30;;;;;;;8.87;37.98;94223.50;4937955;29;20433;-71
2021/03/19 11:11:03;;;;;;;14.10;6.90;;;;;;;8.68;38.76;94219.69;4952271;29;20467;-72
2021/03/19 11:13:33;;;;;;;9.90;6.80;;;;;;;8.46;39.49;94221.13;4952764;29;20461;-72
2021/03/19 11:16:02;;;;;;;9.97;6.17;;;;;;;8.69;38.78;94231.88;4971500;28;20607;-71
2021/03/19 11:18:39;;;;;;;10.47;6.60;;;;;;;8.13;39.61;94226.03;5012761;28;20420;-70
2021/03/19 11:21:07;;;;;;;11.80;6.23;;;;;;;8.18;39.95;94217.78;5012731;28;20431;-72
2021/03/19 11:23:39;;;;;;;8.83;6.23;;;;;;;8.71;40.80;94215.56;5012579;28;20482;-72
2021/03/19 11:26:29;;;;;;;10.07;5.23;;;;;;;9.44;37.46;94211.28;5012668;28;20422;-71
2021/03/19 11:29:12;;;;;;;7.80;5.67;;;;;;;9.47;37.70;94218.53;4952139;29;20455;-70
2021/03/19 11:32:03;;;;;;;7.20;5.43;;;;;;;9.78;37.55;94214.91;4952255;29;20462;-70
2021/03/19 11:34:30;;;;;;;9.90;5.67;;;;;;;9.91;37.58;94212.81;4952065;29;20985;-71
2021/03/19 11:37:12;;;;;;;8.30;5.73;;;;;;;10.37;34.97;94213.56;4952327;29;20418;-70
2021/03/19 11:39:41;;;;;;;10.17;6.67;;;;;;;10.36;37.28;94212.03;4952002;29;20434;-68
2021/03/19 11:42:09;;;;;;;8.90;5.50;;;;;;;10.48;35.36;94209.13;4951684;28;20422;-68
2021/03/19 11:44:35;;;;;;;11.17;5.73;;;;;;;11.00;35.46;94207.53;4951886;29;20427;-69
2021/03/19 11:47:11;;;;;;;9.23;5.17;;;;;;;11.23;33.80;94214.69;4936202;29;20478;-69
2021/03/19 11:49:37;;;;;;;9.33;5.90;;;;;;;10.99;32.94;94211.31;4951901;29;20438;-68
2021/03/19 11:52:02;;;;;;;8.70;5.70;;;;;;;11.02;33.36;94207.19;4951785;29;20462;-69
2021/03/19 11:54:27;;;;;;;8.03;5.60;;;;;;;10.99;33.88;94213.22;4951697;29;20227;-69
2021/03/19 11:56:53;;;;;;;8.47;5.83;;;;;;;10.64;33.41;94200.97;4951945;29;20182;-69
2021/03/19 11:59:19;;;;;;;7.03;5.03;;;;;;;9.78;34.81;94201.56;4951628;29;20246;-73
2021/03/19 12:01:44;;;;;;;10.10;5.70;;;;;;;9.96;33.99;94191.19;4952041;29;20179;-70
2021/03/19 12:04:17;;;;;;;8.40;5.53;;;;;;;10.10;35.58;94193.28;4951851;29;20198;-68
2021/03/19 12:06:42;;;;;;;11.03;6.87;;;;;;;9.89;36.57;94196.41;4983476;28;20338;-69
2021/03/19 12:09:09;;;;;;;11.27;5.60;;;;;;;9.71;35.06;94201.47;5010508;28;20424;-69